sensor_id;sensor_type;location;lat;lon;timestamp;temperature;humidity
23721;DHT22;42950;52.134;5.578;2023-04-25T00:01:34;6.90;99.90
23721;DHT22;42950;52.134;5.578;2023-04-25T00:04:01;7.00;99.90
23721;DHT22;42950;52.134;5.578;2023-04-25T00:06:28;7.00;99.90
23721;DHT22;42950;52.134;5.578;2023-04-25T00:08:55;6.90;99.90
23721;DHT22;42950;52.134;5.578;2023-04-25T00:11:22;6.80;99.90
23721;DHT22;42950;52.134;5.578;2023-04-25T00:13:47;6.80;99.90
23721;DHT22;42950;52.134;5.578;2023-04-25T00:16:13;6.70;99.90
23721;DHT22;42950;52.134;5.578;2023-04-25T00:18:41;6.70;99.90
23721;DHT22;42950;52.134;5.578;2023-04-25T00:21:07;6.80;99.90
23721;DHT22;42950;52.134;5.578;2023-04-25T00:23:33;6.70;99.90
23721;DHT22;42950;52.134;5.578;2023-04-25T00:26:01;6.70;99.90
23721;DHT22;42950;52.134;5.578;2023-04-25T00:28:26;6.70;99.90
23721;DHT22;42950;52.134;5.578;2023-04-25T00:30:52;6.70;99.90
23721;DHT22;42950;52.134;5.578;2023-04-25T00:33:17;6.70;99.90
23721;DHT22;42950;52.134;5.578;2023-04-25T00:35:43;6.80;99.90
23721;DHT22;42950;52.134;5.578;2023-04-25T00:38:08;6.80;99.90
23721;DHT22;42950;52.134;5.578;2023-04-25T00:40:34;6.80;99.90
23721;DHT22;42950;52.134;5.578;2023-04-25T00:43:00;6.80;99.90
23721;DHT22;42950;52.134;5.578;2023-04-25T00:45:29;6.80;99.90
23721;DHT22;42950;52.134;5.578;2023-04-25T00:47:55;6.80;99.90
23721;DHT22;42950;52.134;5.578;2023-04-25T00:50:22;6.70;99.90
23721;DHT22;42950;52.134;5.578;2023-04-25T00:52:47;6.70;99.90
23721;DHT22;42950;52.134;5.578;2023-04-25T00:55:13;6.60;99.90
23721;DHT22;42950;52.134;5.578;2023-04-25T00:57:39;6.50;99.90
23721;DHT22;42950;52.134;5.578;2023-04-25T01:00:06;6.50;99.90
23721;DHT22;42950;52.134;5.578;2023-04-25T01:02:32;6.50;99.90
23721;DHT22;42950;52.134;5.578;2023-04-25T01:04:58;6.50;99.90
23721;DHT22;42950;52.134;5.578;2023-04-25T01:07:24;6.40;99.90
23721;DHT22;42950;52.134;5.578;2023-04-25T01:09:51;6.40;99.90
23721;DHT22;42950;52.134;5.578;2023-04-25T01:12:17;6.40;99.90
23721;DHT22;42950;52.134;5.578;2023-04-25T01:14:42;6.50;99.90
23721;DHT22;42950;52.134;5.578;2023-04-25T01:17:09;6.50;99.90
23721;DHT22;42950;52.134;5.578;2023-04-25T01:19:35;6.60;99.90
23721;DHT22;42950;52.134;5.578;2023-04-25T01:22:01;6.60;99.90
23721;DHT22;42950;52.134;5.578;2023-04-25T01:24:27;6.60;99.90
23721;DHT22;42950;52.134;5.578;2023-04-25T01:26:53;6.60;99.90
23721;DHT22;42950;52.134;5.578;2023-04-25T01:29:21;6.60;99.90
23721;DHT22;42950;52.134;5.578;2023-04-25T01:31:47;6.60;99.90
23721;DHT22;42950;52.134;5.578;2023-04-25T01:34:13;6.60;99.90
23721;DHT22;42950;52.134;5.578;2023-04-25T01:36:39;6.50;99.90
23721;DHT22;42950;52.134;5.578;2023-04-25T01:39:05;6.50;99.90
23721;DHT22;42950;52.134;5.578;2023-04-25T01:41:31;6.40;99.90
23721;DHT22;42950;52.134;5.578;2023-04-25T01:43:57;6.50;99.90
23721;DHT22;42950;52.134;5.578;2023-04-25T01:46:23;6.40;99.90
23721;DHT22;42950;52.134;5.578;2023-04-25T01:48:48;6.30;99.90
23721;DHT22;42950;52.134;5.578;2023-04-25T01:51:14;6.30;99.90
23721;DHT22;42950;52.134;5.578;2023-04-25T01:53:41;6.20;99.90
23721;DHT22;42950;52.134;5.578;2023-04-25T01:56:06;6.10;99.90
23721;DHT22;42950;52.134;5.578;2023-04-25T01:58:32;6.10;99.90
23721;DHT22;42950;52.134;5.578;2023-04-25T02:00:57;6.10;99.90
23721;DHT22;42950;52.134;5.578;2023-04-25T02:03:23;6.10;99.90
23721;DHT22;42950;52.134;5.578;2023-04-25T02:05:49;6.00;99.90
23721;DHT22;42950;52.134;5.578;2023-04-25T02:08:16;6.00;99.90
23721;DHT22;42950;52.134;5.578;2023-04-25T02:10:42;5.90;99.90
23721;DHT22;42950;52.134;5.578;2023-04-25T02:13:07;5.90;99.90
23721;DHT22;42950;52.134;5.578;2023-04-25T02:15:33;5.90;99.90
23721;DHT22;42950;52.134;5.578;2023-04-25T02:17:59;5.90;99.90
23721;DHT22;42950;52.134;5.578;2023-04-25T02:20:26;5.90;99.90
23721;DHT22;42950;52.134;5.578;2023-04-25T02:22:52;5.90;99.90
23721;DHT22;42950;52.134;5.578;2023-04-25T02:25:19;5.90;99.90
23721;DHT22;42950;52.134;5.578;2023-04-25T02:27:46;5.90;99.90
23721;DHT22;42950;52.134;5.578;2023-04-25T02:30:12;5.90;99.90
23721;DHT22;42950;52.134;5.578;2023-04-25T02:32:38;5.90;99.90
23721;DHT22;42950;52.134;5.578;2023-04-25T02:35:04;5.90;99.90
23721;DHT22;42950;52.134;5.578;2023-04-25T02:37:31;5.80;99.90
23721;DHT22;42950;52.134;5.578;2023-04-25T02:39:56;5.90;99.90
23721;DHT22;42950;52.134;5.578;2023-04-25T02:42:22;6.00;99.90
23721;DHT22;42950;52.134;5.578;2023-04-25T02:44:48;6.00;99.90
23721;DHT22;42950;52.134;5.578;2023-04-25T02:47:14;6.00;99.90
23721;DHT22;42950;52.134;5.578;2023-04-25T02:49:39;6.00;99.90
23721;DHT22;42950;52.134;5.578;2023-04-25T02:52:05;6.00;99.90
23721;DHT22;42950;52.134;5.578;2023-04-25T02:54:31;6.00;99.90
23721;DHT22;42950;52.134;5.578;2023-04-25T02:56:57;5.90;99.90
23721;DHT22;42950;52.134;5.578;2023-04-25T02:59:22;5.80;99.90
23721;DHT22;42950;52.134;5.578;2023-04-25T03:01:48;5.80;99.90
23721;DHT22;42950;52.134;5.578;2023-04-25T03:04:13;5.90;99.90
23721;DHT22;42950;52.134;5.578;2023-04-25T03:06:39;5.80;99.90
23721;DHT22;42950;52.134;5.578;2023-04-25T03:09:05;5.80;99.90
23721;DHT22;42950;52.134;5.578;2023-04-25T03:11:30;5.80;99.90
23721;DHT22;42950;52.134;5.578;2023-04-25T03:13:56;5.80;99.90
23721;DHT22;42950;52.134;5.578;2023-04-25T03:16:22;5.80;99.90
23721;DHT22;42950;52.134;5.578;2023-04-25T03:18:47;5.80;99.90
23721;DHT22;42950;52.134;5.578;2023-04-25T03:21:14;5.80;99.90
23721;DHT22;42950;52.134;5.578;2023-04-25T03:23:40;5.80;99.90
23721;DHT22;42950;52.134;5.578;2023-04-25T03:26:06;5.80;99.90
23721;DHT22;42950;52.134;5.578;2023-04-25T03:28:31;5.80;99.90
23721;DHT22;42950;52.134;5.578;2023-04-25T03:30:57;5.60;99.90
23721;DHT22;42950;52.134;5.578;2023-04-25T03:33:22;5.70;99.90
23721;DHT22;42950;52.134;5.578;2023-04-25T03:35:48;5.70;99.90
23721;DHT22;42950;52.134;5.578;2023-04-25T03:38:15;5.60;99.90
23721;DHT22;42950;52.134;5.578;2023-04-25T03:40:40;5.60;99.90
23721;DHT22;42950;52.134;5.578;2023-04-25T03:43:06;5.60;99.90
23721;DHT22;42950;52.134;5.578;2023-04-25T03:45:32;5.50;99.90
23721;DHT22;42950;52.134;5.578;2023-04-25T03:47:57;5.50;99.90
23721;DHT22;42950;52.134;5.578;2023-04-25T03:50:23;5.50;99.90
23721;DHT22;42950;52.134;5.578;2023-04-25T03:52:49;5.40;99.90
23721;DHT22;42950;52.134;5.578;2023-04-25T03:55:15;5.30;99.90
23721;DHT22;42950;52.134;5.578;2023-04-25T03:57:40;5.30;99.90
23721;DHT22;42950;52.134;5.578;2023-04-25T04:00:07;5.30;99.90
23721;DHT22;42950;52.134;5.578;2023-04-25T04:02:33;5.30;99.90
23721;DHT22;42950;52.134;5.578;2023-04-25T04:05:00;5.20;99.90
23721;DHT22;42950;52.134;5.578;2023-04-25T04:07:25;5.20;99.90
23721;DHT22;42950;52.134;5.578;2023-04-25T04:09:51;5.20;99.90
23721;DHT22;42950;52.134;5.578;2023-04-25T04:12:16;5.20;99.90
23721;DHT22;42950;52.134;5.578;2023-04-25T04:14:42;5.20;99.90
23721;DHT22;42950;52.134;5.578;2023-04-25T04:17:07;5.20;99.90
23721;DHT22;42950;52.134;5.578;2023-04-25T04:19:33;5.20;99.90
23721;DHT22;42950;52.134;5.578;2023-04-25T04:21:59;5.30;99.90
23721;DHT22;42950;52.134;5.578;2023-04-25T04:24:24;5.30;99.90
23721;DHT22;42950;52.134;5.578;2023-04-25T04:26:50;5.30;99.90
23721;DHT22;42950;52.134;5.578;2023-04-25T04:29:16;5.30;99.90
23721;DHT22;42950;52.134;5.578;2023-04-25T04:31:48;5.30;99.90
23721;DHT22;42950;52.134;5.578;2023-04-25T04:34:13;5.30;99.90
23721;DHT22;42950;52.134;5.578;2023-04-25T04:36:39;5.40;99.90
23721;DHT22;42950;52.134;5.578;2023-04-25T04:39:05;5.40;99.90
23721;DHT22;42950;52.134;5.578;2023-04-25T04:41:31;5.50;99.90
23721;DHT22;42950;52.134;5.578;2023-04-25T04:43:57;5.50;99.90
23721;DHT22;42950;52.134;5.578;2023-04-25T04:46:23;5.50;99.90
23721;DHT22;42950;52.134;5.578;2023-04-25T04:48:49;5.50;99.90
23721;DHT22;42950;52.134;5.578;2023-04-25T04:51:15;5.60;99.90
23721;DHT22;42950;52.134;5.578;2023-04-25T04:53:41;5.60;99.90
23721;DHT22;42950;52.134;5.578;2023-04-25T04:56:06;5.60;99.90
23721;DHT22;42950;52.134;5.578;2023-04-25T04:58:32;5.60;99.90
23721;DHT22;42950;52.134;5.578;2023-04-25T05:00:57;5.60;99.90
23721;DHT22;42950;52.134;5.578;2023-04-25T05:03:23;5.60;99.90
23721;DHT22;42950;52.134;5.578;2023-04-25T05:05:51;5.60;99.90
23721;DHT22;42950;52.134;5.578;2023-04-25T05:08:17;5.60;99.90
23721;DHT22;42950;52.134;5.578;2023-04-25T05:10:42;5.70;99.90
23721;DHT22;42950;52.134;5.578;2023-04-25T05:13:08;5.80;99.90
23721;DHT22;42950;52.134;5.578;2023-04-25T05:15:33;5.80;99.90
23721;DHT22;42950;52.134;5.578;2023-04-25T05:18:00;5.90;99.90
23721;DHT22;42950;52.134;5.578;2023-04-25T05:20:26;6.00;99.90
23721;DHT22;42950;52.134;5.578;2023-04-25T05:22:52;6.10;99.90
23721;DHT22;42950;52.134;5.578;2023-04-25T05:25:17;6.10;99.90
23721;DHT22;42950;52.134;5.578;2023-04-25T05:27:43;6.00;99.90
23721;DHT22;42950;52.134;5.578;2023-04-25T05:30:09;6.10;99.90
23721;DHT22;42950;52.134;5.578;2023-04-25T05:32:34;6.10;99.90
23721;DHT22;42950;52.134;5.578;2023-04-25T05:35:01;6.20;99.90
23721;DHT22;42950;52.134;5.578;2023-04-25T05:37:26;6.10;99.90
23721;DHT22;42950;52.134;5.578;2023-04-25T05:39:52;6.10;99.90
23721;DHT22;42950;52.134;5.578;2023-04-25T05:42:18;6.20;99.90
23721;DHT22;42950;52.134;5.578;2023-04-25T05:44:44;6.20;99.90
23721;DHT22;42950;52.134;5.578;2023-04-25T05:47:10;6.30;99.90
23721;DHT22;42950;52.134;5.578;2023-04-25T05:49:35;6.30;99.90
23721;DHT22;42950;52.134;5.578;2023-04-25T05:52:01;6.40;99.90
23721;DHT22;42950;52.134;5.578;2023-04-25T05:54:26;6.40;99.90
23721;DHT22;42950;52.134;5.578;2023-04-25T05:56:52;6.40;99.90
23721;DHT22;42950;52.134;5.578;2023-04-25T05:59:20;6.50;99.90
23721;DHT22;42950;52.134;5.578;2023-04-25T06:01:46;6.50;99.90
23721;DHT22;42950;52.134;5.578;2023-04-25T06:04:12;6.50;99.90
23721;DHT22;42950;52.134;5.578;2023-04-25T06:06:37;6.50;99.90
23721;DHT22;42950;52.134;5.578;2023-04-25T06:09:03;6.60;99.90
23721;DHT22;42950;52.134;5.578;2023-04-25T06:11:28;6.70;99.90
23721;DHT22;42950;52.134;5.578;2023-04-25T06:13:55;6.70;99.90
23721;DHT22;42950;52.134;5.578;2023-04-25T06:16:20;6.80;99.90
23721;DHT22;42950;52.134;5.578;2023-04-25T06:18:46;6.80;99.90
23721;DHT22;42950;52.134;5.578;2023-04-25T06:21:11;6.80;99.90
23721;DHT22;42950;52.134;5.578;2023-04-25T06:23:37;6.80;99.90
23721;DHT22;42950;52.134;5.578;2023-04-25T06:26:03;6.80;99.90
23721;DHT22;42950;52.134;5.578;2023-04-25T06:28:28;6.80;99.90
23721;DHT22;42950;52.134;5.578;2023-04-25T06:30:54;6.80;99.90
23721;DHT22;42950;52.134;5.578;2023-04-25T06:33:19;6.80;99.90
23721;DHT22;42950;52.134;5.578;2023-04-25T06:35:46;6.90;99.90
23721;DHT22;42950;52.134;5.578;2023-04-25T06:38:12;6.90;99.90
23721;DHT22;42950;52.134;5.578;2023-04-25T06:40:37;6.90;99.90
23721;DHT22;42950;52.134;5.578;2023-04-25T06:43:04;7.10;99.90
23721;DHT22;42950;52.134;5.578;2023-04-25T06:45:30;7.20;99.90
23721;DHT22;42950;52.134;5.578;2023-04-25T06:47:55;7.40;99.90
23721;DHT22;42950;52.134;5.578;2023-04-25T06:50:21;7.50;99.90
23721;DHT22;42950;52.134;5.578;2023-04-25T06:52:47;7.60;99.90
23721;DHT22;42950;52.134;5.578;2023-04-25T06:55:12;7.60;99.90
23721;DHT22;42950;52.134;5.578;2023-04-25T06:57:38;7.50;99.90
23721;DHT22;42950;52.134;5.578;2023-04-25T07:00:04;7.50;99.90
23721;DHT22;42950;52.134;5.578;2023-04-25T07:02:35;7.60;99.90
23721;DHT22;42950;52.134;5.578;2023-04-25T07:05:01;7.70;99.90
23721;DHT22;42950;52.134;5.578;2023-04-25T07:07:29;7.70;99.90
23721;DHT22;42950;52.134;5.578;2023-04-25T07:09:55;7.80;99.90
23721;DHT22;42950;52.134;5.578;2023-04-25T07:12:21;7.80;99.90
23721;DHT22;42950;52.134;5.578;2023-04-25T07:14:47;7.80;99.90
23721;DHT22;42950;52.134;5.578;2023-04-25T07:17:12;7.80;99.90
23721;DHT22;42950;52.134;5.578;2023-04-25T07:19:38;7.80;99.90
23721;DHT22;42950;52.134;5.578;2023-04-25T07:22:05;7.80;99.90
23721;DHT22;42950;52.134;5.578;2023-04-25T07:24:31;7.80;99.90
23721;DHT22;42950;52.134;5.578;2023-04-25T07:26:57;7.70;99.90
23721;DHT22;42950;52.134;5.578;2023-04-25T07:29:23;7.80;99.90
23721;DHT22;42950;52.134;5.578;2023-04-25T07:31:49;7.90;99.90
23721;DHT22;42950;52.134;5.578;2023-04-25T07:34:14;7.80;99.90
23721;DHT22;42950;52.134;5.578;2023-04-25T07:36:41;7.90;99.90
23721;DHT22;42950;52.134;5.578;2023-04-25T07:39:06;8.00;99.90
23721;DHT22;42950;52.134;5.578;2023-04-25T07:41:34;8.10;99.90
23721;DHT22;42950;52.134;5.578;2023-04-25T07:44:00;8.20;99.90
23721;DHT22;42950;52.134;5.578;2023-04-25T07:46:26;8.30;99.90
23721;DHT22;42950;52.134;5.578;2023-04-25T07:48:51;8.30;99.90
23721;DHT22;42950;52.134;5.578;2023-04-25T07:51:17;8.40;99.90
23721;DHT22;42950;52.134;5.578;2023-04-25T07:53:45;8.40;99.90
23721;DHT22;42950;52.134;5.578;2023-04-25T07:56:11;8.30;99.90
23721;DHT22;42950;52.134;5.578;2023-04-25T07:58:36;8.20;99.90
23721;DHT22;42950;52.134;5.578;2023-04-25T08:01:02;8.30;99.90
23721;DHT22;42950;52.134;5.578;2023-04-25T08:03:28;8.40;99.90
23721;DHT22;42950;52.134;5.578;2023-04-25T08:05:53;8.50;99.90
23721;DHT22;42950;52.134;5.578;2023-04-25T08:08:19;8.50;99.90
23721;DHT22;42950;52.134;5.578;2023-04-25T08:10:45;8.40;99.90
23721;DHT22;42950;52.134;5.578;2023-04-25T08:13:10;8.30;99.90
23721;DHT22;42950;52.134;5.578;2023-04-25T08:15:36;8.40;99.90
23721;DHT22;42950;52.134;5.578;2023-04-25T08:18:01;8.40;99.90
23721;DHT22;42950;52.134;5.578;2023-04-25T08:20:27;8.40;99.90
23721;DHT22;42950;52.134;5.578;2023-04-25T08:22:52;8.40;99.90
23721;DHT22;42950;52.134;5.578;2023-04-25T08:25:18;8.40;99.90
23721;DHT22;42950;52.134;5.578;2023-04-25T08:27:44;8.40;99.90
23721;DHT22;42950;52.134;5.578;2023-04-25T08:30:10;8.10;99.90
23721;DHT22;42950;52.134;5.578;2023-04-25T08:32:35;7.70;99.90
23721;DHT22;42950;52.134;5.578;2023-04-25T08:35:03;7.60;99.90
23721;DHT22;42950;52.134;5.578;2023-04-25T08:37:29;7.60;99.90
23721;DHT22;42950;52.134;5.578;2023-04-25T08:39:54;7.50;99.90
23721;DHT22;42950;52.134;5.578;2023-04-25T08:42:21;7.60;99.90
23721;DHT22;42950;52.134;5.578;2023-04-25T08:44:49;7.70;99.90
23721;DHT22;42950;52.134;5.578;2023-04-25T08:47:15;7.80;99.90
23721;DHT22;42950;52.134;5.578;2023-04-25T08:49:44;7.90;99.90
23721;DHT22;42950;52.134;5.578;2023-04-25T08:52:11;8.00;99.90
23721;DHT22;42950;52.134;5.578;2023-04-25T08:54:42;8.10;99.90
23721;DHT22;42950;52.134;5.578;2023-04-25T08:57:09;8.20;99.90
23721;DHT22;42950;52.134;5.578;2023-04-25T08:59:35;8.20;99.90
23721;DHT22;42950;52.134;5.578;2023-04-25T09:02:02;8.30;99.90
23721;DHT22;42950;52.134;5.578;2023-04-25T09:04:31;8.30;99.90
23721;DHT22;42950;52.134;5.578;2023-04-25T09:06:56;8.40;99.90
23721;DHT22;42950;52.134;5.578;2023-04-25T09:09:23;8.50;99.90
23721;DHT22;42950;52.134;5.578;2023-04-25T09:11:49;8.50;99.90
23721;DHT22;42950;52.134;5.578;2023-04-25T09:14:19;8.70;99.90
23721;DHT22;42950;52.134;5.578;2023-04-25T09:19:30;9.10;99.90
23721;DHT22;42950;52.134;5.578;2023-04-25T09:21:57;9.30;99.90
23721;DHT22;42950;52.134;5.578;2023-04-25T09:26:58;9.50;99.90
23721;DHT22;42950;52.134;5.578;2023-04-25T09:29:31;9.40;99.90
23721;DHT22;42950;52.134;5.578;2023-04-25T09:32:20;9.50;99.90
23721;DHT22;42950;52.134;5.578;2023-04-25T09:34:49;9.20;99.90
23721;DHT22;42950;52.134;5.578;2023-04-25T09:37:19;9.20;99.90
23721;DHT22;42950;52.134;5.578;2023-04-25T09:39:46;9.40;99.90
23721;DHT22;42950;52.134;5.578;2023-04-25T09:42:14;9.70;99.90
23721;DHT22;42950;52.134;5.578;2023-04-25T09:44:44;10.00;99.90
23721;DHT22;42950;52.134;5.578;2023-04-25T09:47:14;10.10;99.90
23721;DHT22;42950;52.134;5.578;2023-04-25T09:49:43;9.90;99.90
23721;DHT22;42950;52.134;5.578;2023-04-25T09:52:13;9.80;99.90
23721;DHT22;42950;52.134;5.578;2023-04-25T09:54:38;9.50;99.90
23721;DHT22;42950;52.134;5.578;2023-04-25T09:57:15;9.10;99.90
23721;DHT22;42950;52.134;5.578;2023-04-25T09:59:47;8.80;99.90
23721;DHT22;42950;52.134;5.578;2023-04-25T10:02:15;8.70;99.90
23721;DHT22;42950;52.134;5.578;2023-04-25T10:04:41;8.50;99.90
23721;DHT22;42950;52.134;5.578;2023-04-25T10:07:08;8.40;99.90
23721;DHT22;42950;52.134;5.578;2023-04-25T10:09:36;8.40;99.90
23721;DHT22;42950;52.134;5.578;2023-04-25T10:12:03;8.50;99.90
23721;DHT22;42950;52.134;5.578;2023-04-25T10:14:30;8.70;99.90
23721;DHT22;42950;52.134;5.578;2023-04-25T10:16:57;8.90;99.90
23721;DHT22;42950;52.134;5.578;2023-04-25T10:19:24;8.90;99.90
23721;DHT22;42950;52.134;5.578;2023-04-25T10:22:02;9.00;99.90
23721;DHT22;42950;52.134;5.578;2023-04-25T10:24:28;9.20;99.90
23721;DHT22;42950;52.134;5.578;2023-04-25T10:26:54;9.50;99.90
23721;DHT22;42950;52.134;5.578;2023-04-25T10:29:23;9.50;99.90
23721;DHT22;42950;52.134;5.578;2023-04-25T10:31:49;9.60;99.90
23721;DHT22;42950;52.134;5.578;2023-04-25T10:34:16;9.70;99.90
23721;DHT22;42950;52.134;5.578;2023-04-25T10:36:42;9.80;99.90
23721;DHT22;42950;52.134;5.578;2023-04-25T10:39:08;10.00;99.90
23721;DHT22;42950;52.134;5.578;2023-04-25T10:41:58;10.30;99.90
23721;DHT22;42950;52.134;5.578;2023-04-25T10:44:28;10.50;99.90
23721;DHT22;42950;52.134;5.578;2023-04-25T10:46:58;10.60;99.90
23721;DHT22;42950;52.134;5.578;2023-04-25T10:49:32;10.70;99.90
23721;DHT22;42950;52.134;5.578;2023-04-25T10:54:56;11.00;99.90
23721;DHT22;42950;52.134;5.578;2023-04-25T10:57:31;10.50;99.90
23721;DHT22;42950;52.134;5.578;2023-04-25T11:00:04;10.50;99.90
23721;DHT22;42950;52.134;5.578;2023-04-25T11:02:31;10.60;99.90
23721;DHT22;42950;52.134;5.578;2023-04-25T11:04:57;10.40;99.90
23721;DHT22;42950;52.134;5.578;2023-04-25T11:07:31;10.20;99.90
23721;DHT22;42950;52.134;5.578;2023-04-25T11:10:01;10.40;99.90
23721;DHT22;42950;52.134;5.578;2023-04-25T11:12:30;10.60;99.90
23721;DHT22;42950;52.134;5.578;2023-04-25T11:15:04;10.70;99.90
23721;DHT22;42950;52.134;5.578;2023-04-25T11:17:30;11.20;99.90
23721;DHT22;42950;52.134;5.578;2023-04-25T11:19:56;11.40;99.90
23721;DHT22;42950;52.134;5.578;2023-04-25T11:22:22;11.50;99.90
23721;DHT22;42950;52.134;5.578;2023-04-25T11:24:48;11.50;99.90
23721;DHT22;42950;52.134;5.578;2023-04-25T11:27:13;11.30;99.90
23721;DHT22;42950;52.134;5.578;2023-04-25T11:29:40;11.20;99.90
23721;DHT22;42950;52.134;5.578;2023-04-25T11:32:06;10.70;99.90
23721;DHT22;42950;52.134;5.578;2023-04-25T11:34:33;10.20;99.90
23721;DHT22;42950;52.134;5.578;2023-04-25T11:37:00;9.80;99.90
23721;DHT22;42950;52.134;5.578;2023-04-25T11:39:27;9.30;99.90
23721;DHT22;42950;52.134;5.578;2023-04-25T11:41:53;9.00;99.90
23721;DHT22;42950;52.134;5.578;2023-04-25T11:44:20;9.00;99.90
23721;DHT22;42950;52.134;5.578;2023-04-25T11:46:46;8.80;99.90
23721;DHT22;42950;52.134;5.578;2023-04-25T11:49:12;8.90;99.90
23721;DHT22;42950;52.134;5.578;2023-04-25T11:51:39;9.00;99.90
23721;DHT22;42950;52.134;5.578;2023-04-25T11:54:05;9.20;99.90
23721;DHT22;42950;52.134;5.578;2023-04-25T11:56:31;9.30;99.90
23721;DHT22;42950;52.134;5.578;2023-04-25T12:01:26;9.30;99.90
23721;DHT22;42950;52.134;5.578;2023-04-25T12:03:52;9.40;99.90
23721;DHT22;42950;52.134;5.578;2023-04-25T12:06:17;9.50;99.90
23721;DHT22;42950;52.134;5.578;2023-04-25T12:09:00;9.70;99.90
23721;DHT22;42950;52.134;5.578;2023-04-25T12:11:25;9.80;99.90
23721;DHT22;42950;52.134;5.578;2023-04-25T12:13:52;9.90;99.90
23721;DHT22;42950;52.134;5.578;2023-04-25T12:16:18;10.00;99.90
23721;DHT22;42950;52.134;5.578;2023-04-25T12:18:44;10.10;99.90
23721;DHT22;42950;52.134;5.578;2023-04-25T12:21:09;10.20;99.90
23721;DHT22;42950;52.134;5.578;2023-04-25T12:23:38;10.30;99.90
23721;DHT22;42950;52.134;5.578;2023-04-25T12:26:05;10.50;99.90
23721;DHT22;42950;52.134;5.578;2023-04-25T12:28:32;10.80;99.90
23721;DHT22;42950;52.134;5.578;2023-04-25T12:31:05;11.30;99.90
23721;DHT22;42950;52.134;5.578;2023-04-25T12:33:38;11.10;99.90
23721;DHT22;42950;52.134;5.578;2023-04-25T12:36:05;11.20;99.90
23721;DHT22;42950;52.134;5.578;2023-04-25T12:38:37;10.80;99.90
23721;DHT22;42950;52.134;5.578;2023-04-25T12:41:04;10.70;99.90
23721;DHT22;42950;52.134;5.578;2023-04-25T12:43:30;10.90;99.90
23721;DHT22;42950;52.134;5.578;2023-04-25T12:45:56;11.20;99.90
23721;DHT22;42950;52.134;5.578;2023-04-25T12:48:22;11.40;99.90
23721;DHT22;42950;52.134;5.578;2023-04-25T12:50:49;11.40;99.90
23721;DHT22;42950;52.134;5.578;2023-04-25T12:53:19;11.00;99.90
23721;DHT22;42950;52.134;5.578;2023-04-25T12:55:44;10.70;99.90
23721;DHT22;42950;52.134;5.578;2023-04-25T12:58:15;10.70;99.90
23721;DHT22;42950;52.134;5.578;2023-04-25T13:00:41;10.80;99.90
23721;DHT22;42950;52.134;5.578;2023-04-25T13:03:08;11.10;99.90
23721;DHT22;42950;52.134;5.578;2023-04-25T13:05:34;11.40;99.90
23721;DHT22;42950;52.134;5.578;2023-04-25T13:08:00;11.70;99.90
23721;DHT22;42950;52.134;5.578;2023-04-25T13:10:26;11.80;99.90
23721;DHT22;42950;52.134;5.578;2023-04-25T13:12:52;11.50;99.90
23721;DHT22;42950;52.134;5.578;2023-04-25T13:15:17;11.30;99.90
23721;DHT22;42950;52.134;5.578;2023-04-25T13:17:43;11.40;99.90
23721;DHT22;42950;52.134;5.578;2023-04-25T13:20:09;11.40;99.90
23721;DHT22;42950;52.134;5.578;2023-04-25T13:22:37;11.50;99.90
23721;DHT22;42950;52.134;5.578;2023-04-25T13:25:03;11.70;99.90
23721;DHT22;42950;52.134;5.578;2023-04-25T13:27:29;11.80;99.90
23721;DHT22;42950;52.134;5.578;2023-04-25T13:29:55;11.80;99.90
23721;DHT22;42950;52.134;5.578;2023-04-25T13:32:21;11.70;99.90
23721;DHT22;42950;52.134;5.578;2023-04-25T13:34:46;10.90;99.90
23721;DHT22;42950;52.134;5.578;2023-04-25T13:37:12;10.40;99.90
23721;DHT22;42950;52.134;5.578;2023-04-25T13:39:38;10.30;99.90
23721;DHT22;42950;52.134;5.578;2023-04-25T13:42:03;9.80;99.90
23721;DHT22;42950;52.134;5.578;2023-04-25T13:44:29;9.70;99.90
23721;DHT22;42950;52.134;5.578;2023-04-25T13:46:54;9.60;99.90
23721;DHT22;42950;52.134;5.578;2023-04-25T13:49:20;9.50;99.90
23721;DHT22;42950;52.134;5.578;2023-04-25T13:51:45;9.60;99.90
23721;DHT22;42950;52.134;5.578;2023-04-25T13:54:11;9.90;99.90
23721;DHT22;42950;52.134;5.578;2023-04-25T13:56:36;10.30;99.90
23721;DHT22;42950;52.134;5.578;2023-04-25T13:59:02;10.60;99.90
23721;DHT22;42950;52.134;5.578;2023-04-25T14:01:28;11.00;99.90
23721;DHT22;42950;52.134;5.578;2023-04-25T14:03:55;11.10;99.90
23721;DHT22;42950;52.134;5.578;2023-04-25T14:06:21;11.20;99.90
23721;DHT22;42950;52.134;5.578;2023-04-25T14:08:50;10.90;99.90
23721;DHT22;42950;52.134;5.578;2023-04-25T14:11:16;10.80;99.90
23721;DHT22;42950;52.134;5.578;2023-04-25T14:13:44;10.60;99.90
23721;DHT22;42950;52.134;5.578;2023-04-25T14:16:09;10.40;99.90
23721;DHT22;42950;52.134;5.578;2023-04-25T14:18:35;10.10;99.90
23721;DHT22;42950;52.134;5.578;2023-04-25T14:21:00;10.20;99.90
23721;DHT22;42950;52.134;5.578;2023-04-25T14:23:26;10.30;99.90
23721;DHT22;42950;52.134;5.578;2023-04-25T14:25:52;10.20;99.90
23721;DHT22;42950;52.134;5.578;2023-04-25T14:28:17;10.20;99.90
23721;DHT22;42950;52.134;5.578;2023-04-25T14:30:43;10.40;99.90
23721;DHT22;42950;52.134;5.578;2023-04-25T14:33:08;10.80;99.90
23721;DHT22;42950;52.134;5.578;2023-04-25T14:35:35;11.00;99.90
23721;DHT22;42950;52.134;5.578;2023-04-25T14:38:00;11.10;99.90
23721;DHT22;42950;52.134;5.578;2023-04-25T14:40:26;11.10;99.90
23721;DHT22;42950;52.134;5.578;2023-04-25T14:42:52;11.00;99.90
23721;DHT22;42950;52.134;5.578;2023-04-25T14:45:18;10.70;99.90
23721;DHT22;42950;52.134;5.578;2023-04-25T14:47:44;10.70;99.90
23721;DHT22;42950;52.134;5.578;2023-04-25T14:50:10;10.70;99.90
23721;DHT22;42950;52.134;5.578;2023-04-25T14:52:36;10.70;99.90
23721;DHT22;42950;52.134;5.578;2023-04-25T14:55:02;10.70;99.90
23721;DHT22;42950;52.134;5.578;2023-04-25T14:57:31;10.90;99.90
23721;DHT22;42950;52.134;5.578;2023-04-25T14:59:57;11.00;99.90
23721;DHT22;42950;52.134;5.578;2023-04-25T15:02:24;10.80;99.90
23721;DHT22;42950;52.134;5.578;2023-04-25T15:04:49;10.80;99.90
23721;DHT22;42950;52.134;5.578;2023-04-25T15:07:15;11.00;99.90
23721;DHT22;42950;52.134;5.578;2023-04-25T15:09:41;10.60;99.90
23721;DHT22;42950;52.134;5.578;2023-04-25T15:12:07;10.60;99.90
23721;DHT22;42950;52.134;5.578;2023-04-25T15:14:33;10.50;99.90
23721;DHT22;42950;52.134;5.578;2023-04-25T15:16:59;10.40;99.90
23721;DHT22;42950;52.134;5.578;2023-04-25T15:19:25;10.10;99.90
23721;DHT22;42950;52.134;5.578;2023-04-25T15:21:51;10.20;99.90
23721;DHT22;42950;52.134;5.578;2023-04-25T15:24:17;10.50;99.90
23721;DHT22;42950;52.134;5.578;2023-04-25T15:26:43;10.40;99.90
23721;DHT22;42950;52.134;5.578;2023-04-25T15:29:09;10.60;99.90
23721;DHT22;42950;52.134;5.578;2023-04-25T15:31:35;10.70;99.90
23721;DHT22;42950;52.134;5.578;2023-04-25T15:34:01;10.70;99.90
23721;DHT22;42950;52.134;5.578;2023-04-25T15:36:26;10.80;99.90
23721;DHT22;42950;52.134;5.578;2023-04-25T15:38:52;10.50;99.90
23721;DHT22;42950;52.134;5.578;2023-04-25T15:41:18;10.10;99.90
23721;DHT22;42950;52.134;5.578;2023-04-25T15:43:43;10.00;99.90
23721;DHT22;42950;52.134;5.578;2023-04-25T15:46:09;10.00;99.90
23721;DHT22;42950;52.134;5.578;2023-04-25T15:48:34;10.00;99.90